Time;durP1;ratioP1;P1;durP2;ratioP2;P2;SDS_P1;SDS_P2;PMS_P1;PMS_P2;Temp;Humidity;BMP_temperature;BMP_pressure;BME280_temperature;BME280_humidity;BME280_pressure;Samples;Min_cycle;Max_cycle;Signal;HPM_P1;HPM_P2
2022/05/01 00:02:15;;;;;;;0.75;0.75;;;9.10;99.90;;;;;;5226435;28;20218;-78
2022/05/01 00:04:46;;;;;;;0.98;0.98;;;9.00;99.90;;;;;;5218618;28;20045;-79
2022/05/01 00:07:17;;;;;;;0.90;0.90;;;9.00;99.90;;;;;;5245770;28;20032;-79
2022/05/01 00:09:53;;;;;;;1.10;1.10;;;9.00;99.90;;;;;;5229583;28;20070;-78
2022/05/01 00:12:26;;;;;;;0.95;0.95;;;9.00;99.90;;;;;;5247118;28;20024;-76
2022/05/01 00:15:00;;;;;;;0.90;0.90;;;8.90;99.90;;;;;;5246697;28;20246;-78
2022/05/01 00:17:33;;;;;;;0.63;0.63;;;9.00;99.90;;;;;;5229067;28;20257;-78
2022/05/01 00:20:10;;;;;;;0.80;0.80;;;8.90;99.90;;;;;;5246648;28;20035;-80
2022/05/01 00:22:44;;;;;;;0.80;0.80;;;8.90;99.90;;;;;;5232836;28;20024;-78
2022/05/01 00:25:17;;;;;;;0.73;0.73;;;8.90;99.90;;;;;;5235090;28;20090;-78
2022/05/01 00:27:49;;;;;;;1.07;1.07;;;8.90;99.90;;;;;;5239777;28;20036;-77
2022/05/01 00:30:20;;;;;;;0.90;0.90;;;8.80;99.90;;;;;;5229525;28;20269;-79
2022/05/01 00:38:40;;;;;;;0.77;0.77;;;8.50;99.90;;;;;;5232584;28;20043;-78
2022/05/01 00:41:12;;;;;;;0.85;0.85;;;8.60;99.90;;;;;;5250033;28;20028;-78
2022/05/01 00:44:08;;;;;;;0.70;0.70;;;8.60;99.90;;;;;;5230925;28;20020;-76
2022/05/01 00:46:49;;;;;;;0.82;0.82;;;8.60;99.90;;;;;;5239713;28;20023;-77
2022/05/01 00:49:32;;;;;;;0.70;0.70;;;8.70;99.90;;;;;;5248067;28;20032;-76
2022/05/01 00:52:14;;;;;;;0.65;0.65;;;8.80;99.90;;;;;;5247994;28;20032;-78
2022/05/01 00:54:48;;;;;;;0.80;0.80;;;9.00;99.90;;;;;;5226770;28;20024;-77
2022/05/01 00:57:19;;;;;;;0.82;0.82;;;9.30;99.90;;;;;;5223526;28;20032;-78
2022/05/01 00:59:56;;;;;;;0.70;0.70;;;9.40;99.90;;;;;;5208595;28;20682;-78
2022/05/01 01:02:30;;;;;;;0.70;0.70;;;9.50;99.90;;;;;;5230679;28;20590;-78
2022/05/01 01:05:05;;;;;;;0.77;0.77;;;9.50;99.90;;;;;;5233657;28;20410;-76
2022/05/01 01:07:38;;;;;;;0.70;0.70;;;9.40;99.90;;;;;;5226278;28;20099;-80
2022/05/01 01:10:15;;;;;;;0.85;0.85;;;9.30;99.90;;;;;;5221174;28;20504;-77
2022/05/01 01:12:53;;;;;;;1.00;1.00;;;9.20;99.90;;;;;;5239587;28;20371;-77
2022/05/01 01:15:29;;;;;;;0.60;0.60;;;9.10;99.90;;;;;;5245146;28;20022;-79
2022/05/01 01:18:03;;;;;;;0.85;0.85;;;8.90;99.90;;;;;;5245351;28;20036;-78
2022/05/01 01:20:37;;;;;;;0.50;0.50;;;8.80;99.90;;;;;;5245231;28;20040;-78
2022/05/01 01:23:16;;;;;;;0.80;0.80;;;8.80;99.90;;;;;;5246066;28;20526;-78
2022/05/01 01:25:49;;;;;;;0.65;0.65;;;8.70;99.90;;;;;;5246268;28;20027;-78
2022/05/01 01:28:30;;;;;;;0.70;0.70;;;8.60;99.90;;;;;;5246026;28;20301;-77
2022/05/01 01:34:00;;;;;;;0.52;0.52;;;8.60;99.90;;;;;;5244920;28;20024;-79
2022/05/01 01:36:32;;;;;;;0.80;0.80;;;8.60;99.90;;;;;;5246054;28;20029;-78
2022/05/01 01:39:05;;;;;;;0.80;0.80;;;8.60;99.90;;;;;;5249162;28;20439;-77
2022/05/01 01:41:41;;;;;;;0.73;0.73;;;8.60;99.90;;;;;;5265597;28;20043;-79
2022/05/01 01:44:13;;;;;;;0.90;0.90;;;8.70;99.90;;;;;;5265239;28;20032;-78
2022/05/01 01:46:44;;;;;;;0.70;0.70;;;8.70;99.90;;;;;;5249046;28;20031;-78
2022/05/01 01:49:17;;;;;;;0.90;0.90;;;8.70;99.90;;;;;;5245093;28;20036;-78
2022/05/01 01:51:53;;;;;;;1.08;1.08;;;8.80;99.90;;;;;;5243538;28;20042;-79
2022/05/01 01:54:28;;;;;;;0.68;0.68;;;8.90;99.90;;;;;;5248814;28;20017;-78
2022/05/01 01:56:59;;;;;;;0.70;0.70;;;9.00;99.90;;;;;;5215305;28;20130;-79
2022/05/01 01:59:30;;;;;;;0.80;0.80;;;8.90;99.90;;;;;;5247796;28;20020;-78
2022/05/01 02:02:05;;;;;;;0.93;0.93;;;8.90;99.90;;;;;;5247551;28;20068;-79
2022/05/01 02:04:36;;;;;;;1.33;1.33;;;8.70;99.90;;;;;;5238196;28;20068;-80
2022/05/01 02:07:10;;;;;;;1.10;1.10;;;8.70;99.90;;;;;;5236311;28;20027;-79
2022/05/01 02:09:41;;;;;;;0.80;0.80;;;8.60;99.90;;;;;;5270244;28;20016;-77
2022/05/01 02:12:14;;;;;;;1.65;1.55;;;8.60;99.90;;;;;;5256524;28;20036;-79
2022/05/01 02:14:48;;;;;;;0.95;0.95;;;8.70;99.90;;;;;;5247819;28;20063;-78
2022/05/01 02:17:20;;;;;;;0.90;0.90;;;8.80;99.90;;;;;;5248614;28;20020;-79
2022/05/01 02:19:54;;;;;;;0.70;0.70;;;8.90;99.90;;;;;;5234076;28;20040;-79
2022/05/01 02:22:27;;;;;;;0.80;0.80;;;8.90;99.90;;;;;;5226768;28;20029;-77
2022/05/01 02:24:59;;;;;;;1.67;1.37;;;8.90;99.90;;;;;;5239032;28;20521;-76
2022/05/01 02:27:37;;;;;;;0.70;0.70;;;8.90;99.90;;;;;;5249762;28;20020;-78
2022/05/01 02:30:10;;;;;;;1.10;1.10;;;9.00;99.90;;;;;;5229437;28;20039;-78
2022/05/01 02:32:44;;;;;;;0.98;0.98;;;9.30;99.90;;;;;;5229766;28;20103;-78
2022/05/01 02:35:17;;;;;;;1.17;1.10;;;9.30;99.90;;;;;;5247245;28;20040;-78
2022/05/01 02:37:50;;;;;;;0.97;0.97;;;9.30;99.90;;;;;;5213230;28;20036;-77
2022/05/01 02:40:31;;;;;;;1.10;1.10;;;9.10;99.90;;;;;;5248070;28;20352;-78
2022/05/01 02:43:05;;;;;;;1.02;1.02;;;8.90;99.90;;;;;;5245934;28;20036;-78
2022/05/01 02:45:40;;;;;;;1.15;1.10;;;8.80;99.90;;;;;;5218634;28;20031;-78
2022/05/01 02:48:14;;;;;;;0.82;0.82;;;8.90;99.90;;;;;;5227407;28;20037;-79
2022/05/01 02:50:48;;;;;;;0.90;0.90;;;9.00;99.90;;;;;;5227568;28;20024;-78
2022/05/01 02:53:22;;;;;;;1.08;1.08;;;9.20;99.90;;;;;;5226651;28;20452;-78
2022/05/01 02:55:56;;;;;;;1.02;1.02;;;9.20;99.90;;;;;;5230242;28;20036;-78
2022/05/01 02:58:29;;;;;;;2.15;1.10;;;9.20;99.90;;;;;;5232961;28;20046;-78
2022/05/01 03:01:05;;;;;;;1.33;1.33;;;9.00;99.90;;;;;;5246216;28;20040;-77
2022/05/01 03:03:39;;;;;;;0.95;0.95;;;8.90;99.90;;;;;;5247369;28;20031;-78
2022/05/01 03:06:14;;;;;;;2.50;1.90;;;8.90;99.90;;;;;;5230000;28;20132;-76
2022/05/01 03:08:47;;;;;;;1.15;1.15;;;8.80;99.90;;;;;;5226916;28;20491;-77
2022/05/01 03:11:21;;;;;;;0.90;0.90;;;8.70;99.90;;;;;;5214487;28;20031;-78
2022/05/01 03:13:53;;;;;;;0.80;0.80;;;8.60;99.90;;;;;;5228684;28;20038;-77
2022/05/01 03:16:29;;;;;;;1.65;1.58;;;8.60;99.90;;;;;;5247148;28;20028;-78
2022/05/01 03:24:41;;;;;;;1.13;1.13;;;8.70;99.90;;;;;;5251210;28;20024;-80
2022/05/01 03:27:15;;;;;;;1.75;1.60;;;8.60;99.90;;;;;;5228329;28;20020;-79
2022/05/01 03:30:15;;;;;;;0.90;0.90;;;8.70;99.90;;;;;;5212314;28;20035;-79
2022/05/01 03:32:39;;;;;;;1.30;1.30;;;8.60;99.90;;;;;;5229538;28;20036;-79
2022/05/01 03:35:14;;;;;;;2.47;2.35;;;8.80;99.90;;;;;;5230438;28;20025;-78
2022/05/01 03:37:45;;;;;;;;;;;9.00;99.90;;;;;;5244856;28;20024;-80
2022/05/01 03:40:16;;;;;;;2.55;2.35;;;9.00;99.90;;;;;;5230958;28;20233;-79
2022/05/01 03:42:48;;;;;;;0.65;0.65;;;8.90;99.90;;;;;;5229813;28;20049;-79
2022/05/01 03:45:20;;;;;;;1.20;1.20;;;8.80;99.90;;;;;;5212257;28;20020;-79
2022/05/01 03:47:53;;;;;;;4.22;2.35;;;8.90;99.90;;;;;;5228120;28;20039;-80
2022/05/01 03:50:25;;;;;;;1.70;1.67;;;8.90;99.90;;;;;;5241919;28;20032;-80
2022/05/01 03:52:56;;;;;;;1.02;1.02;;;9.00;99.90;;;;;;5248262;28;20261;-79
2022/05/01 03:55:28;;;;;;;0.80;0.80;;;9.20;99.90;;;;;;5248698;28;20020;-79
2022/05/01 03:58:04;;;;;;;0.95;0.95;;;9.10;99.90;;;;;;5234973;28;20201;-78
2022/05/01 04:00:35;;;;;;;1.08;1.08;;;9.00;99.90;;;;;;5233802;28;20535;-77
2022/05/01 04:03:07;;;;;;;1.52;1.42;;;9.00;99.90;;;;;;5232759;28;20024;-75
2022/05/01 04:05:40;;;;;;;0.90;0.90;;;9.00;99.90;;;;;;5223339;28;20055;-79
2022/05/01 04:08:15;;;;;;;1.00;1.00;;;9.20;99.90;;;;;;5269739;28;20608;-77
2022/05/01 04:10:46;;;;;;;1.10;1.10;;;9.30;99.90;;;;;;5236952;28;20028;-79
2022/05/01 04:13:22;;;;;;;1.02;1.02;;;9.30;99.90;;;;;;5249349;28;20021;-79
2022/05/01 04:15:54;;;;;;;2.25;1.30;;;9.30;99.90;;;;;;5232212;28;20042;-80
2022/05/01 04:18:27;;;;;;;0.88;0.88;;;9.40;99.90;;;;;;5231384;28;20051;-78
2022/05/01 04:20:59;;;;;;;0.88;0.88;;;9.50;99.90;;;;;;5230675;28;20040;-79
2022/05/01 04:23:32;;;;;;;0.75;0.75;;;9.70;99.90;;;;;;5249154;28;20613;-77
2022/05/01 04:26:11;;;;;;;0.90;0.90;;;9.80;99.90;;;;;;5249844;28;20317;-79
2022/05/01 04:31:40;;;;;;;1.08;1.02;;;9.90;99.90;;;;;;5247752;28;20030;-76
2022/05/01 04:34:12;;;;;;;2.47;1.88;;;10.00;99.90;;;;;;5244824;28;20032;-78
2022/05/01 04:36:43;;;;;;;1.02;1.02;;;10.20;99.90;;;;;;5241466;28;20032;-77
2022/05/01 04:39:18;;;;;;;0.98;0.98;;;10.30;99.90;;;;;;5238905;28;20475;-81
2022/05/01 04:41:54;;;;;;;0.90;0.90;;;10.60;99.90;;;;;;5222248;28;20049;-80
2022/05/01 04:44:27;;;;;;;0.60;0.60;;;10.90;99.90;;;;;;5246136;28;20326;-78
2022/05/01 04:46:58;;;;;;;1.48;1.38;;;11.00;99.90;;;;;;5245044;28;20050;-78
2022/05/01 04:49:30;;;;;;;0.70;0.70;;;11.10;99.90;;;;;;5230277;28;20036;-78
2022/05/01 04:52:01;;;;;;;1.58;1.48;;;11.30;99.90;;;;;;5252181;28;20031;-77
2022/05/01 04:54:32;;;;;;;1.10;1.10;;;11.40;99.90;;;;;;5269254;28;20044;-77
2022/05/01 04:57:10;;;;;;;0.80;0.80;;;11.70;99.90;;;;;;5235335;28;20035;-77
2022/05/01 04:59:44;;;;;;;1.20;1.20;;;11.70;99.90;;;;;;5211076;28;20040;-79
2022/05/01 05:02:15;;;;;;;0.80;0.80;;;11.70;99.90;;;;;;5227535;28;20020;-80
2022/05/01 05:04:48;;;;;;;1.30;1.30;;;11.80;99.90;;;;;;5217532;28;20055;-78
2022/05/01 05:07:24;;;;;;;0.70;0.70;;;11.90;99.90;;;;;;5211111;28;20051;-78
2022/05/01 05:09:57;;;;;;;1.00;1.00;;;12.00;99.90;;;;;;5229078;28;20047;-78
2022/05/01 05:12:29;;;;;;;1.30;1.30;;;12.20;99.90;;;;;;5212981;28;20036;-80
2022/05/01 05:15:04;;;;;;;2.13;1.85;;;12.10;99.90;;;;;;5235966;28;20028;-78
2022/05/01 05:17:40;;;;;;;1.35;1.30;;;12.30;99.90;;;;;;5220467;28;20028;-79
2022/05/01 05:20:12;;;;;;;1.23;1.23;;;12.30;99.90;;;;;;5254498;28;20032;-78
2022/05/01 05:22:43;;;;;;;0.68;0.68;;;12.50;99.90;;;;;;5253682;28;20032;-78
2022/05/01 05:25:19;;;;;;;1.48;1.42;;;12.70;99.90;;;;;;5232882;28;20039;-79
2022/05/01 05:27:55;;;;;;;0.70;0.70;;;12.90;99.90;;;;;;5231465;28;20498;-79
2022/05/01 05:30:27;;;;;;;1.13;1.13;;;13.00;99.90;;;;;;5248343;28;20033;-78
2022/05/01 05:33:01;;;;;;;0.80;0.80;;;13.00;99.90;;;;;;5249546;28;20039;-80
2022/05/01 05:35:36;;;;;;;0.63;0.63;;;13.00;99.90;;;;;;5267419;28;20016;-77
2022/05/01 05:38:09;;;;;;;1.63;1.52;;;13.00;99.90;;;;;;5245441;28;20047;-81
2022/05/01 05:40:43;;;;;;;1.20;1.20;;;13.10;99.90;;;;;;5250167;28;20037;-80
2022/05/01 05:43:20;;;;;;;1.45;1.45;;;13.20;99.90;;;;;;5218345;28;20051;-78
2022/05/01 05:45:56;;;;;;;0.65;0.65;;;13.30;99.90;;;;;;5233915;28;20032;-78
2022/05/01 05:48:27;;;;;;;0.80;0.80;;;13.50;99.90;;;;;;5251027;28;20028;-79
2022/05/01 05:51:06;;;;;;;0.73;0.73;;;13.70;99.90;;;;;;5251901;28;20428;-79
2022/05/01 05:53:40;;;;;;;0.80;0.80;;;14.00;99.90;;;;;;5261110;28;20043;-79
2022/05/01 05:56:12;;;;;;;0.97;0.97;;;14.40;99.90;;;;;;5251133;28;20036;-78
2022/05/01 05:58:43;;;;;;;1.23;1.23;;;14.70;99.90;;;;;;5233254;28;20024;-80
2022/05/01 06:01:14;;;;;;;0.90;0.90;;;14.90;99.90;;;;;;5234050;28;20028;-80
2022/05/01 06:03:49;;;;;;;0.57;0.57;;;14.90;99.90;;;;;;5252818;28;20574;-78
2022/05/01 06:06:20;;;;;;;0.68;0.68;;;15.00;99.90;;;;;;5223038;28;20045;-79
2022/05/01 06:08:56;;;;;;;0.52;0.52;;;15.00;99.90;;;;;;5234749;28;20451;-76
2022/05/01 06:11:35;;;;;;;2.85;1.35;;;15.10;99.90;;;;;;5252303;28;20032;-78
2022/05/01 06:14:09;;;;;;;0.57;0.57;;;15.60;99.90;;;;;;5254135;28;20512;-76
2022/05/01 06:16:42;;;;;;;1.00;1.00;;;15.30;99.90;;;;;;5274050;28;20028;-77
2022/05/01 06:19:15;;;;;;;1.10;1.10;;;15.40;99.90;;;;;;5220826;28;20029;-79
2022/05/01 06:21:49;;;;;;;0.60;0.60;;;15.50;99.90;;;;;;5219959;28;20504;-77
2022/05/01 06:24:20;;;;;;;0.80;0.80;;;15.60;99.90;;;;;;5236407;28;20034;-78
2022/05/01 06:26:51;;;;;;;0.77;0.77;;;15.80;99.90;;;;;;5249294;28;20032;-77
2022/05/01 06:29:25;;;;;;;0.88;0.88;;;16.10;99.90;;;;;;5250999;28;20382;-78
2022/05/01 06:31:59;;;;;;;0.70;0.70;;;16.00;99.90;;;;;;5262072;28;20042;-76
2022/05/01 06:34:36;;;;;;;0.60;0.60;;;16.10;99.90;;;;;;5221232;28;20520;-76
2022/05/01 06:37:12;;;;;;;1.02;1.00;;;16.50;99.90;;;;;;5253878;28;20031;-78
2022/05/01 06:39:49;;;;;;;1.35;1.25;;;16.80;99.90;;;;;;5255048;28;20025;-79
2022/05/01 06:42:21;;;;;;;0.88;0.88;;;17.30;99.90;;;;;;5254102;28;20036;-79
2022/05/01 06:44:52;;;;;;;0.70;0.70;;;17.70;99.90;;;;;;5250424;28;20023;-79
2022/05/01 06:47:23;;;;;;;10.23;1.58;;;18.00;99.90;;;;;;5230992;28;20044;-78
2022/05/01 06:49:55;;;;;;;0.70;0.70;;;18.10;99.90;;;;;;5233477;28;20536;-78
2022/05/01 06:52:36;;;;;;;0.80;0.80;;;18.10;99.90;;;;;;5240947;28;20253;-77
2022/05/01 06:55:10;;;;;;;0.57;0.57;;;17.40;99.90;;;;;;5231778;28;20039;-78
2022/05/01 06:57:41;;;;;;;0.70;0.70;;;17.90;99.90;;;;;;5194670;28;20025;-79
2022/05/01 07:00:17;;;;;;;0.47;0.47;;;18.10;99.90;;;;;;5212804;28;20052;-78
2022/05/01 07:02:53;;;;;;;0.63;0.63;;;18.60;99.90;;;;;;5216534;28;20041;-78
2022/05/01 07:05:24;;;;;;;0.50;0.50;;;18.50;99.90;;;;;;5195721;28;20052;-75
2022/05/01 07:07:56;;;;;;;0.45;0.45;;;18.20;99.90;;;;;;5206203;28;20025;-78
2022/05/01 07:10:28;;;;;;;1.10;1.10;;;17.70;99.90;;;;;;5221052;28;20029;-77
2022/05/01 07:13:05;;;;;;;0.90;0.90;;;17.70;99.90;;;;;;5196642;28;20032;-79
2022/05/01 07:15:38;;;;;;;0.80;0.80;;;17.50;99.90;;;;;;5221934;28;20206;-79
2022/05/01 07:18:12;;;;;;;0.50;0.50;;;16.40;99.90;;;;;;5239327;28;20035;-81
2022/05/01 07:20:45;;;;;;;0.90;0.90;;;16.30;99.90;;;;;;5214102;28;20047;-80
2022/05/01 07:23:23;;;;;;;0.60;0.60;;;16.50;99.90;;;;;;5221422;28;20028;-80
2022/05/01 07:25:59;;;;;;;0.50;0.50;;;16.80;99.90;;;;;;5218022;28;20048;-79
2022/05/01 07:28:32;;;;;;;1.92;1.77;;;17.10;99.90;;;;;;5223094;28;20025;-81
2022/05/01 07:31:04;;;;;;;0.75;0.75;;;17.20;99.90;;;;;;5236931;28;20032;-78
2022/05/01 07:33:40;;;;;;;0.52;0.52;;;17.20;99.90;;;;;;5231818;28;20039;-75
2022/05/01 07:36:12;;;;;;;0.65;0.65;;;17.50;99.90;;;;;;5195725;28;20029;-77
2022/05/01 07:38:43;;;;;;;0.47;0.47;;;17.90;99.90;;;;;;5193713;28;20055;-76
2022/05/01 07:41:19;;;;;;;1.05;1.05;;;17.80;99.90;;;;;;5229236;28;20234;-76
2022/05/01 07:43:55;;;;;;;0.70;0.70;;;17.70;99.90;;;;;;5209804;28;20040;-75
2022/05/01 07:46:26;;;;;;;1.23;1.23;;;17.40;99.90;;;;;;5202407;28;20029;-79
2022/05/01 07:48:59;;;;;;;0.60;0.60;;;16.80;99.90;;;;;;5190190;28;20059;-78
2022/05/01 07:51:30;;;;;;;0.95;0.95;;;16.40;99.90;;;;;;5172211;28;20453;-78
2022/05/01 07:54:03;;;;;;;0.55;0.55;;;16.30;99.90;;;;;;5205596;28;20048;-76
2022/05/01 07:56:36;;;;;;;1.77;1.58;;;16.40;99.90;;;;;;5208818;28;20029;-76
2022/05/01 07:59:08;;;;;;;0.88;0.88;;;16.70;99.90;;;;;;5213367;28;20043;-78
2022/05/01 08:01:42;;;;;;;1.33;1.23;;;16.50;99.90;;;;;;5210784;28;20028;-77
2022/05/01 08:04:32;;;;;;;0.98;0.98;;;16.50;99.90;;;;;;5200525;28;20044;-80
2022/05/01 08:07:05;;;;;;;0.85;0.85;;;16.50;99.90;;;;;;5201715;28;20037;-80
2022/05/01 08:09:37;;;;;;;0.70;0.70;;;16.30;99.90;;;;;;5187798;28;20051;-77
2022/05/01 08:12:12;;;;;;;1.23;1.23;;;16.40;99.90;;;;;;5200391;28;20361;-79
2022/05/01 08:14:44;;;;;;;0.88;0.88;;;16.20;99.90;;;;;;5192235;28;20051;-77
2022/05/01 08:17:18;;;;;;;0.70;0.70;;;16.30;99.90;;;;;;5202199;28;20033;-76
2022/05/01 08:22:41;;;;;;;0.80;0.80;;;16.40;99.90;;;;;;5205677;28;20040;-81
2022/05/01 08:25:17;;;;;;;2.40;1.30;;;16.30;99.90;;;;;;5183822;28;20047;-78
2022/05/01 08:27:48;;;;;;;0.80;0.80;;;16.40;99.90;;;;;;5195133;28;20039;-78
2022/05/01 08:30:24;;;;;;;1.05;1.05;;;16.60;99.90;;;;;;5189091;28;20032;-76
2022/05/01 08:32:59;;;;;;;2.05;1.27;;;17.00;99.90;;;;;;5173514;28;20035;-77
2022/05/01 08:35:32;;;;;;;1.80;1.70;;;17.20;99.90;;;;;;5207712;28;20027;-78
2022/05/01 08:38:03;;;;;;;1.02;1.02;;;16.90;99.90;;;;;;5207298;28;20049;-77
2022/05/01 08:40:43;;;;;;;0.63;0.63;;;16.50;99.90;;;;;;5208466;28;20298;-79
2022/05/01 08:43:19;;;;;;;1.15;1.15;;;16.20;99.90;;;;;;5208167;28;20046;-78
2022/05/01 08:45:51;;;;;;;0.70;0.70;;;16.20;99.90;;;;;;5210959;28;20345;-77
2022/05/01 08:48:29;;;;;;;0.70;0.70;;;16.50;99.90;;;;;;5227482;28;20046;-79
2022/05/01 08:51:05;;;;;;;1.08;1.08;;;16.80;99.90;;;;;;5212644;28;20314;-77
2022/05/01 08:53:37;;;;;;;0.60;0.60;;;16.70;99.90;;;;;;5216036;28;20070;-80
2022/05/01 08:56:11;;;;;;;0.50;0.50;;;17.00;99.90;;;;;;5208434;28;20319;-80
2022/05/01 08:58:50;;;;;;;1.60;1.50;;;16.50;99.90;;;;;;5221766;28;20047;-79
2022/05/01 09:01:22;;;;;;;0.50;0.50;;;16.00;99.90;;;;;;5215625;28;20384;-81
2022/05/01 09:03:57;;;;;;;0.90;0.90;;;15.50;99.90;;;;;;5202492;28;20033;-80
2022/05/01 09:06:35;;;;;;;0.60;0.60;;;15.20;99.90;;;;;;5193285;28;20049;-81
2022/05/01 09:09:22;;;;;;;1.63;1.52;;;15.10;99.90;;;;;;5221213;28;20272;-80
2022/05/01 09:14:49;;;;;;;0.52;0.52;;;14.80;99.90;;;;;;5206314;28;20038;-80
2022/05/01 09:17:23;;;;;;;0.90;0.90;;;14.80;99.90;;;;;;5214621;28;20268;-81
2022/05/01 09:20:11;;;;;;;0.85;0.85;;;14.60;99.90;;;;;;5199274;28;20036;-81
2022/05/01 09:22:50;;;;;;;0.80;0.80;;;14.80;99.90;;;;;;5219801;28;20021;-80
2022/05/01 09:25:29;;;;;;;0.93;0.93;;;14.80;99.90;;;;;;5192659;28;20205;-81
2022/05/01 09:28:18;;;;;;;0.77;0.77;;;14.80;99.90;;;;;;5214593;28;20056;-81
2022/05/01 09:30:52;;;;;;;0.80;0.80;;;14.70;99.90;;;;;;5196923;28;20309;-79
2022/05/01 09:33:24;;;;;;;0.75;0.75;;;14.50;99.90;;;;;;5228279;28;20048;-79
2022/05/01 09:36:03;;;;;;;1.05;1.02;;;14.60;99.90;;;;;;5226491;28;20123;-80
2022/05/01 09:38:34;;;;;;;0.63;0.63;;;14.70;99.90;;;;;;5228632;28;20078;-75
2022/05/01 09:41:14;;;;;;;0.95;0.95;;;15.00;99.90;;;;;;5245759;28;20470;-79
2022/05/01 09:43:47;;;;;;;0.90;0.90;;;15.40;99.90;;;;;;5224052;28;20322;-79
2022/05/01 09:46:23;;;;;;;0.50;0.50;;;16.00;99.90;;;;;;5239827;28;20025;-78
2022/05/01 09:48:59;;;;;;;1.67;1.58;;;15.90;99.90;;;;;;5241115;28;20239;-78
2022/05/01 09:51:36;;;;;;;1.00;1.00;;;15.80;99.90;;;;;;5221055;28;20051;-77
2022/05/01 09:54:07;;;;;;;1.05;1.05;;;15.40;99.90;;;;;;5239200;28;20037;-79
2022/05/01 09:56:58;;;;;;;0.90;0.90;;;15.00;99.90;;;;;;5202724;28;20290;-79
2022/05/01 09:59:46;;;;;;;0.80;0.80;;;14.80;99.90;;;;;;5218588;28;20031;-78
2022/05/01 10:02:28;;;;;;;0.90;0.90;;;14.70;99.90;;;;;;5258555;28;20279;-79
2022/05/01 10:05:06;;;;;;;0.50;0.50;;;14.70;99.90;;;;;;5246910;28;20062;-79
2022/05/01 10:07:40;;;;;;;1.33;1.23;;;14.80;99.90;;;;;;5224127;28;20036;-78
2022/05/01 10:10:11;;;;;;;1.42;1.35;;;14.90;99.90;;;;;;5241826;28;20164;-77
2022/05/01 10:12:47;;;;;;;1.20;1.20;;;14.90;99.90;;;;;;5230716;28;20254;-78
2022/05/01 10:15:20;;;;;;;0.57;0.57;;;15.30;99.90;;;;;;5216301;28;20044;-79
2022/05/01 10:17:55;;;;;;;0.63;0.63;;;15.50;99.90;;;;;;5218415;28;20029;-79
2022/05/01 10:20:28;;;;;;;0.88;0.88;;;15.40;99.90;;;;;;5203642;28;20037;-79
2022/05/01 10:23:01;;;;;;;0.60;0.60;;;15.20;99.90;;;;;;5202607;28;20055;-79
2022/05/01 10:25:37;;;;;;;0.50;0.50;;;14.80;99.90;;;;;;5223618;28;20304;-78
2022/05/01 10:28:15;;;;;;;0.70;0.70;;;14.80;99.90;;;;;;5243975;28;20126;-78
2022/05/01 10:34:44;;;;;;;0.73;0.73;;;14.10;99.90;;;;;;5226285;28;20040;-78
2022/05/01 10:37:21;;;;;;;0.80;0.80;;;14.10;99.90;;;;;;5215182;28;20289;-78
2022/05/01 10:39:58;;;;;;;0.75;0.75;;;13.80;99.90;;;;;;5223840;28;20040;-79
2022/05/01 10:42:42;;;;;;;0.57;0.57;;;13.60;99.90;;;;;;5243654;28;20032;-80
2022/05/01 10:45:26;;;;;;;1.07;1.07;;;13.70;99.90;;;;;;5230629;28;20130;-78
2022/05/01 10:47:58;;;;;;;0.80;0.80;;;13.50;99.90;;;;;;5209277;28;20040;-80
2022/05/01 10:50:29;;;;;;;0.68;0.68;;;13.10;99.90;;;;;;5222500;28;20044;-79
2022/05/01 10:53:05;;;;;;;1.23;0.85;;;13.00;99.90;;;;;;5217789;28;20032;-79
2022/05/01 10:55:49;;;;;;;1.60;1.50;;;13.00;99.90;;;;;;5227755;28;20025;-78
2022/05/01 10:58:26;;;;;;;0.82;0.82;;;13.00;99.90;;;;;;5219462;28;20059;-79
2022/05/01 11:00:58;;;;;;;2.03;1.92;;;13.10;99.90;;;;;;5241972;28;20059;-78
2022/05/01 11:03:36;;;;;;;1.38;1.38;;;13.20;99.90;;;;;;5223034;28;20044;-81
2022/05/01 11:06:08;;;;;;;1.10;1.10;;;13.10;99.90;;;;;;5204123;28;20048;-78
2022/05/01 11:08:41;;;;;;;1.50;1.50;;;13.10;99.90;;;;;;5207366;28;20273;-78
2022/05/01 11:11:12;;;;;;;1.45;1.45;;;13.00;99.90;;;;;;5241733;28;20238;-77
2022/05/01 11:13:52;;;;;;;0.95;0.95;;;13.00;99.90;;;;;;5204081;28;20033;-78
2022/05/01 11:16:54;;;;;;;0.70;0.70;;;13.00;99.90;;;;;;5210081;28;20056;-76
2022/05/01 11:19:45;;;;;;;0.85;0.85;;;12.90;99.90;;;;;;5211619;28;20040;-77
2022/05/01 11:22:27;;;;;;;1.08;1.08;;;12.90;99.90;;;;;;5232098;28;20101;-78
2022/05/01 11:24:59;;;;;;;0.65;0.65;;;13.00;99.90;;;;;;5223144;28;20298;-77
2022/05/01 11:27:53;;;;;;;1.10;1.10;;;13.30;99.90;;;;;;5241252;28;20032;-76
2022/05/01 11:30:31;;;;;;;0.98;0.95;;;13.30;99.90;;;;;;5215554;28;20306;-75
2022/05/01 11:33:06;;;;;;;1.20;1.20;;;13.40;99.90;;;;;;5205852;28;20036;-77
2022/05/01 11:36:02;;;;;;;0.65;0.65;;;13.50;99.90;;;;;;5219659;28;20036;-77
2022/05/01 11:38:54;;;;;;;0.70;0.70;;;13.60;99.90;;;;;;5241404;28;20032;-77
2022/05/01 11:41:43;;;;;;;0.77;0.77;;;13.90;99.90;;;;;;5239776;28;20329;-78
2022/05/01 11:44:23;;;;;;;0.90;0.90;;;13.90;99.90;;;;;;5221761;28;20048;-77
2022/05/01 11:46:57;;;;;;;1.00;1.00;;;13.90;99.90;;;;;;5201971;28;20044;-78
2022/05/01 11:49:29;;;;;;;0.80;0.80;;;13.90;99.90;;;;;;5223164;28;20036;-79
2022/05/01 11:52:07;;;;;;;0.75;0.75;;;13.90;99.90;;;;;;5223106;28;20225;-77
2022/05/01 11:54:40;;;;;;;0.88;0.88;;;13.80;99.90;;;;;;5206385;28;20044;-78
2022/05/01 12:03:13;;;;;;;0.90;0.90;;;13.90;99.90;;;;;;5211418;28;20040;-78
2022/05/01 12:05:49;;;;;;;0.70;0.70;;;14.00;99.90;;;;;;5193916;28;20060;-79
2022/05/01 12:08:23;;;;;;;0.60;0.60;;;14.20;99.90;;;;;;5225457;28;20032;-80
2022/05/01 12:10:56;;;;;;;0.90;0.90;;;14.30;99.90;;;;;;5219019;28;20039;-80
2022/05/01 12:13:32;;;;;;;0.60;0.60;;;14.60;99.90;;;;;;5225160;28;20036;-83
2022/05/01 12:16:05;;;;;;;0.52;0.52;;;14.80;99.90;;;;;;5227817;28;20048;-79
2022/05/01 12:18:47;;;;;;;0.40;0.40;;;14.90;99.90;;;;;;5219835;28;20040;-82
2022/05/01 12:21:30;;;;;;;0.70;0.70;;;15.10;99.90;;;;;;5215897;28;20040;-80
2022/05/01 12:24:12;;;;;;;0.75;0.75;;;15.40;99.90;;;;;;5214127;28;20035;-76
2022/05/01 12:26:49;;;;;;;0.60;0.60;;;15.80;99.90;;;;;;5197570;28;20040;-85
2022/05/01 12:29:22;;;;;;;0.60;0.60;;;15.90;99.90;;;;;;5204463;28;20040;-75
2022/05/01 12:32:15;;;;;;;0.60;0.60;;;16.00;99.90;;;;;;5209847;28;20039;-79
2022/05/01 12:34:48;;;;;;;0.50;0.50;;;15.90;99.90;;;;;;5208670;28;20044;-76
2022/05/01 12:37:29;;;;;;;0.50;0.50;;;16.00;99.90;;;;;;5225468;28;20373;-77
2022/05/01 12:40:14;;;;;;;0.60;0.60;;;15.90;99.90;;;;;;5208856;28;20043;-75
2022/05/01 12:45:44;;;;;;;0.80;0.80;;;16.10;99.90;;;;;;5212651;28;20339;-76
2022/05/01 12:48:21;;;;;;;0.52;0.52;;;16.50;99.90;;;;;;5218712;28;20059;-78
2022/05/01 12:50:56;;;;;;;0.60;0.60;;;16.50;99.90;;;;;;5203114;28;20514;-75
2022/05/01 12:53:29;;;;;;;0.70;0.70;;;17.00;99.90;;;;;;5221770;28;20035;-76
2022/05/01 12:56:20;;;;;;;0.65;0.65;;;17.30;99.90;;;;;;5184004;28;20043;-78
2022/05/01 12:58:51;;;;;;;0.63;0.63;;;17.60;99.90;;;;;;5185279;28;20076;-78
2022/05/01 13:01:27;;;;;;;0.60;0.60;;;17.60;99.90;;;;;;5203789;28;20530;-77
2022/05/01 13:03:58;;;;;;;0.47;0.47;;;17.80;99.90;;;;;;5221322;28;20055;-75
2022/05/01 13:06:38;;;;;;;0.80;0.80;;;18.20;99.90;;;;;;5172341;28;20050;-76
2022/05/01 13:09:13;;;;;;;0.55;0.55;;;19.00;99.90;;;;;;5210920;28;20036;-74
2022/05/01 13:12:07;;;;;;;1.00;1.00;;;20.00;99.90;;;;;;5219813;28;20028;-79
2022/05/01 13:14:38;;;;;;;0.57;0.57;;;20.50;99.90;;;;;;5215671;28;20039;-77
2022/05/01 13:17:14;;;;;;;0.52;0.52;;;20.40;99.90;;;;;;5201385;28;20051;-76
2022/05/01 13:19:45;;;;;;;0.40;0.40;;;19.60;99.90;;;;;;5182520;28;20044;-77
2022/05/01 13:22:22;;;;;;;0.88;0.85;;;19.40;99.90;;;;;;5220956;28;20047;-75
2022/05/01 13:24:58;;;;;;;0.50;0.50;;;19.50;99.90;;;;;;5202127;28;20048;-76
2022/05/01 13:27:31;;;;;;;0.30;0.30;;;20.00;99.90;;;;;;5201970;28;20436;-75
2022/05/01 13:30:02;;;;;;;1.17;1.08;;;20.50;99.90;;;;;;5221109;28;20177;-74
2022/05/01 13:32:39;;;;;;;0.40;0.40;;;20.80;99.90;;;;;;5200071;28;20037;-77
2022/05/01 13:35:11;;;;;;;0.63;0.60;;;21.20;99.90;;;;;;5182605;28;20049;-77
2022/05/01 13:37:42;;;;;;;0.30;0.30;;;21.10;99.90;;;;;;5198965;28;20047;-80
2022/05/01 13:45:54;;;;;;;0.50;0.50;;;21.60;99.90;;;;;;5219216;28;20052;-75
2022/05/01 13:48:30;;;;;;;0.30;0.30;;;21.80;99.90;;;;;;5202712;28;20255;-76
2022/05/01 13:51:02;;;;;;;0.40;0.40;;;21.70;99.90;;;;;;5228533;28;20033;-77
2022/05/01 13:53:33;;;;;;;0.68;0.68;;;21.90;99.90;;;;;;5241982;28;20028;-76
2022/05/01 13:56:07;;;;;;;0.45;0.45;;;21.00;99.90;;;;;;5242804;28;20146;-74
2022/05/01 13:58:39;;;;;;;0.45;0.45;;;20.70;99.90;;;;;;5210673;28;20040;-77
2022/05/01 14:01:11;;;;;;;0.57;0.57;;;20.40;99.90;;;;;;5226655;28;20040;-74
2022/05/01 14:03:42;;;;;;;0.38;0.38;;;20.60;99.90;;;;;;5226257;28;20070;-75
2022/05/01 14:06:16;;;;;;;0.40;0.40;;;20.80;99.90;;;;;;5215674;28;20330;-77
2022/05/01 14:08:50;;;;;;;0.68;0.68;;;21.60;99.90;;;;;;5233735;28;20040;-75
2022/05/01 14:11:22;;;;;;;1.00;0.85;;;22.10;99.90;;;;;;5210933;28;20043;-76
2022/05/01 14:13:54;;;;;;;0.30;0.30;;;22.70;99.90;;;;;;5224586;28;20042;-74